Time;durP1;ratioP1;P1;durP2;ratioP2;P2;SDS_P1;SDS_P2;PMS_P1;PMS_P2;Temp;Humidity;BMP_temperature;BMP_pressure;BME280_temperature;BME280_humidity;BME280_pressure;Samples;Min_cycle;Max_cycle;Signal;HPM_P1;HPM_P2
2024/01/12 00:02:22;;;;;;;5.70;2.33;;;5.30;99.90;;;;;;5091244;28;20052;-66
2024/01/12 00:04:50;;;;;;;4.72;2.03;;;5.30;99.90;;;;;;5094743;28;20062;-66
2024/01/12 00:07:18;;;;;;;6.07;2.30;;;5.30;99.90;;;;;;5101484;28;20511;-64
2024/01/12 00:09:45;;;;;;;5.22;2.53;;;5.30;99.90;;;;;;5074518;28;20043;-65
2024/01/12 00:12:13;;;;;;;5.15;2.92;;;5.30;99.90;;;;;;5081073;28;20059;-65
2024/01/12 00:14:42;;;;;;;4.47;2.00;;;5.20;99.90;;;;;;5105858;28;20062;-65
2024/01/12 00:17:10;;;;;;;5.18;2.08;;;5.20;99.90;;;;;;5090881;28;20503;-67
2024/01/12 00:19:37;;;;;;;5.38;2.50;;;5.20;99.90;;;;;;5090816;28;20055;-68
2024/01/12 00:22:05;;;;;;;6.40;2.10;;;5.20;99.90;;;;;;5090047;28;20048;-66
2024/01/12 00:24:33;;;;;;;5.25;2.10;;;5.20;99.90;;;;;;5084614;28;20052;-65
2024/01/12 00:27:00;;;;;;;7.80;3.00;;;5.20;99.90;;;;;;5070800;28;20048;-65
2024/01/12 00:29:28;;;;;;;5.60;2.28;;;5.20;99.90;;;;;;5074014;28;20044;-67
2024/01/12 00:31:56;;;;;;;6.60;2.17;;;5.20;99.90;;;;;;5077144;28;20454;-66
2024/01/12 00:34:24;;;;;;;6.60;2.60;;;5.20;99.90;;;;;;5100942;28;20051;-66
2024/01/12 00:36:53;;;;;;;4.22;2.35;;;5.10;99.90;;;;;;5088608;28;20044;-65
2024/01/12 00:39:21;;;;;;;5.38;2.22;;;5.10;99.90;;;;;;5085433;28;20048;-66
2024/01/12 00:41:50;;;;;;;3.58;2.30;;;5.10;99.90;;;;;;5076423;28;20040;-65
2024/01/12 00:44:19;;;;;;;10.65;2.70;;;5.10;99.90;;;;;;5106056;28;20055;-65
2024/01/12 00:46:50;;;;;;;6.47;2.30;;;5.10;99.90;;;;;;5089704;28;20052;-65
2024/01/12 00:49:19;;;;;;;5.55;2.35;;;5.10;99.90;;;;;;5103578;28;20415;-66
2024/01/12 00:51:48;;;;;;;8.32;2.40;;;5.10;99.90;;;;;;5093481;28;20047;-68
2024/01/12 00:54:15;;;;;;;4.97;2.33;;;5.10;99.90;;;;;;5082887;28;20044;-65
2024/01/12 00:56:43;;;;;;;3.35;2.30;;;5.10;99.90;;;;;;5071058;28;20420;-65
2024/01/12 00:59:11;;;;;;;7.25;2.85;;;5.10;99.90;;;;;;5073273;28;20067;-65
2024/01/12 01:01:38;;;;;;;5.45;2.53;;;5.10;99.90;;;;;;5072866;28;20040;-66
2024/01/12 01:04:06;;;;;;;6.90;2.35;;;5.10;99.90;;;;;;5088829;28;20059;-66
2024/01/12 01:06:37;;;;;;;4.13;2.40;;;5.10;99.90;;;;;;5107464;28;20043;-66
2024/01/12 01:09:04;;;;;;;4.68;2.60;;;5.10;99.90;;;;;;5090859;28;20051;-67
2024/01/12 01:11:32;;;;;;;4.82;2.53;;;5.10;99.90;;;;;;5072736;28;20036;-65
2024/01/12 01:14:00;;;;;;;4.50;2.53;;;5.10;99.90;;;;;;5100678;28;20043;-69
2024/01/12 01:16:27;;;;;;;6.15;2.65;;;5.10;99.90;;;;;;5085282;28;20056;-72
2024/01/12 01:18:55;;;;;;;7.32;2.22;;;5.10;99.90;;;;;;5089217;28;20048;-70
2024/01/12 01:21:23;;;;;;;4.80;2.47;;;5.10;99.90;;;;;;5086822;28;20059;-67
2024/01/12 01:23:50;;;;;;;7.80;2.70;;;5.00;99.90;;;;;;5090588;28;20044;-65
2024/01/12 01:26:18;;;;;;;7.85;2.47;;;5.10;99.90;;;;;;5078642;28;20048;-65
2024/01/12 01:28:46;;;;;;;7.30;2.88;;;5.00;99.90;;;;;;5089378;28;20055;-65
2024/01/12 01:31:13;;;;;;;5.82;1.88;;;5.00;99.90;;;;;;5083710;28;20045;-66
2024/01/12 01:33:41;;;;;;;5.43;2.60;;;5.00;99.90;;;;;;5097007;28;20054;-65
2024/01/12 01:36:09;;;;;;;4.30;2.10;;;5.10;99.90;;;;;;5090147;28;20056;-67
2024/01/12 01:38:36;;;;;;;7.78;2.70;;;5.00;99.90;;;;;;5074950;28;20048;-68
2024/01/12 01:41:04;;;;;;;6.50;3.90;;;5.00;99.90;;;;;;5084035;28;20518;-65
2024/01/12 01:43:32;;;;;;;7.45;2.97;;;5.10;99.90;;;;;;5088784;28;20048;-65
2024/01/12 01:46:00;;;;;;;5.75;3.33;;;5.10;99.90;;;;;;5084959;28;20048;-67
2024/01/12 01:48:28;;;;;;;8.23;3.80;;;5.10;99.90;;;;;;5078084;28;20186;-69
2024/01/12 01:50:56;;;;;;;7.78;4.00;;;5.10;99.90;;;;;;5089315;28;20052;-68
2024/01/12 01:53:23;;;;;;;5.97;3.47;;;5.10;99.90;;;;;;5089381;28;20044;-66
2024/01/12 01:55:51;;;;;;;10.45;3.58;;;5.10;99.90;;;;;;5074517;28;20063;-67
2024/01/12 01:58:19;;;;;;;7.72;3.88;;;5.10;99.90;;;;;;5088812;28;20044;-66
2024/01/12 02:00:49;;;;;;;7.78;3.40;;;5.10;99.90;;;;;;5088445;28;20388;-65
2024/01/12 02:03:17;;;;;;;6.47;3.20;;;5.10;99.90;;;;;;5088330;28;20059;-65
2024/01/12 02:05:47;;;;;;;7.20;2.50;;;5.10;99.90;;;;;;5088483;28;20077;-71
2024/01/12 02:08:15;;;;;;;5.80;2.45;;;5.10;99.90;;;;;;5085315;28;20052;-71
2024/01/12 02:10:43;;;;;;;6.63;2.40;;;5.10;99.90;;;;;;5086801;28;20130;-70
2024/01/12 02:13:11;;;;;;;9.35;2.38;;;5.10;99.90;;;;;;5095993;28;20048;-69
2024/01/12 02:15:39;;;;;;;7.20;2.97;;;5.10;99.90;;;;;;5088678;28;20047;-70
2024/01/12 02:18:06;;;;;;;4.63;1.83;;;5.10;99.90;;;;;;5078159;28;20044;-68
2024/01/12 02:20:34;;;;;;;3.20;1.40;;;5.10;99.90;;;;;;5087623;28;20605;-67
2024/01/12 02:23:02;;;;;;;4.55;1.70;;;5.10;99.90;;;;;;5090419;28;20039;-65
2024/01/12 02:25:32;;;;;;;4.45;1.88;;;5.10;99.90;;;;;;5078676;28;20547;-66
2024/01/12 02:28:00;;;;;;;2.65;1.67;;;5.10;99.90;;;;;;5052488;28;20091;-66
2024/01/12 02:30:29;;;;;;;6.32;2.28;;;5.10;99.90;;;;;;5085720;28;20036;-67
2024/01/12 02:32:57;;;;;;;5.35;2.47;;;5.10;99.90;;;;;;5085114;28;20422;-66
2024/01/12 02:35:25;;;;;;;5.93;3.03;;;5.10;99.90;;;;;;5090579;28;20052;-66
2024/01/12 02:37:52;;;;;;;7.38;3.50;;;5.10;99.90;;;;;;5090842;28;20051;-65
2024/01/12 02:40:20;;;;;;;6.25;3.05;;;5.10;99.90;;;;;;5084028;28;20048;-67
2024/01/12 02:42:48;;;;;;;5.82;3.15;;;5.10;99.90;;;;;;5091670;28;20052;-64
2024/01/12 02:45:15;;;;;;;5.38;2.90;;;5.00;99.90;;;;;;5109304;28;20390;-64
2024/01/12 02:47:43;;;;;;;8.73;4.55;;;5.10;99.90;;;;;;5085056;28;20048;-68
2024/01/12 02:50:12;;;;;;;11.00;4.53;;;5.10;99.90;;;;;;5089442;28;20055;-66
2024/01/12 02:52:40;;;;;;;8.52;3.92;;;5.00;99.90;;;;;;5091720;28;20052;-65
2024/01/12 02:55:08;;;;;;;9.85;4.28;;;5.10;99.90;;;;;;5094656;28;20044;-67
2024/01/12 02:57:35;;;;;;;10.35;4.55;;;5.10;99.90;;;;;;5091024;28;20048;-67
2024/01/12 03:00:05;;;;;;;10.23;3.55;;;5.10;99.90;;;;;;5090570;28;20040;-65
2024/01/12 03:02:35;;;;;;;8.90;3.28;;;5.10;99.90;;;;;;5091179;28;20044;-67
2024/01/12 03:05:03;;;;;;;9.23;2.78;;;5.00;99.90;;;;;;5081831;28;20043;-67
2024/01/12 03:07:31;;;;;;;6.32;2.50;;;5.10;99.90;;;;;;5091255;28;20036;-67
2024/01/12 03:10:01;;;;;;;7.80;2.08;;;5.10;99.90;;;;;;5081027;28;20040;-65
2024/01/12 03:12:29;;;;;;;7.88;2.50;;;5.00;99.90;;;;;;5090585;28;20044;-66
2024/01/12 03:14:56;;;;;;;3.97;2.05;;;5.00;99.90;;;;;;5090888;28;20058;-70
2024/01/12 03:17:25;;;;;;;3.63;2.35;;;5.00;99.90;;;;;;5075257;28;20420;-66
2024/01/12 03:19:53;;;;;;;5.95;2.30;;;5.00;99.90;;;;;;5074633;28;20729;-67
2024/01/12 03:22:20;;;;;;;3.88;2.28;;;5.00;99.90;;;;;;5079501;28;20044;-66
2024/01/12 03:24:48;;;;;;;4.78;1.95;;;5.10;99.90;;;;;;5090507;28;20055;-65
2024/01/12 03:27:16;;;;;;;5.70;2.42;;;5.00;99.90;;;;;;5090497;28;20052;-64
2024/01/12 03:29:43;;;;;;;6.00;2.88;;;5.00;99.90;;;;;;5091192;28;20040;-69
2024/01/12 03:32:11;;;;;;;6.47;2.97;;;5.00;99.90;;;;;;5082967;28;20048;-65
2024/01/12 03:34:39;;;;;;;7.43;2.67;;;5.00;99.90;;;;;;5090894;28;20048;-66
2024/01/12 03:37:06;;;;;;;6.88;2.95;;;5.00;99.90;;;;;;5089904;28;20391;-67
2024/01/12 03:39:34;;;;;;;6.20;2.72;;;5.00;99.90;;;;;;5090467;28;20052;-67
2024/01/12 03:42:01;;;;;;;6.53;2.90;;;5.00;99.90;;;;;;5079930;28;20039;-66
2024/01/12 03:44:29;;;;;;;6.78;3.33;;;5.00;99.90;;;;;;5112715;28;20391;-69
2024/01/12 03:46:57;;;;;;;9.57;2.83;;;5.00;99.90;;;;;;5095773;28;20060;-68
2024/01/12 03:49:25;;;;;;;8.68;3.10;;;5.00;99.90;;;;;;5080290;28;20051;-66
2024/01/12 03:51:56;;;;;;;7.50;3.45;;;5.00;99.90;;;;;;5076907;28;20040;-67
2024/01/12 03:54:40;;;;;;;7.55;3.47;;;5.00;99.90;;;;;;5092721;28;20040;-66
2024/01/12 03:57:08;;;;;;;10.88;4.32;;;5.00;99.90;;;;;;5094771;28;20059;-65
2024/01/12 03:59:36;;;;;;;9.88;4.38;;;5.00;99.90;;;;;;5094007;28;20526;-66
2024/01/12 04:02:03;;;;;;;7.55;4.28;;;5.00;99.90;;;;;;5086601;28;20044;-64
2024/01/12 04:04:31;;;;;;;9.32;3.55;;;5.00;99.90;;;;;;5093977;28;20040;-65
2024/01/12 04:07:00;;;;;;;7.10;4.03;;;5.00;99.90;;;;;;5093937;28;20403;-65
2024/01/12 04:09:27;;;;;;;9.77;3.80;;;5.00;99.90;;;;;;5076438;28;20036;-65
2024/01/12 04:11:55;;;;;;;11.60;3.97;;;4.90;99.90;;;;;;5077701;28;20514;-67
2024/01/12 04:14:23;;;;;;;13.32;5.85;;;4.90;99.90;;;;;;5094406;28;20403;-68
2024/01/12 04:16:50;;;;;;;9.45;4.03;;;5.00;99.90;;;;;;5083526;28;20407;-66
2024/01/12 04:19:18;;;;;;;11.02;4.40;;;4.90;99.90;;;;;;5092608;28;20040;-66
2024/01/12 04:21:46;;;;;;;9.48;4.05;;;4.90;99.90;;;;;;5094169;28;20055;-64
2024/01/12 04:24:13;;;;;;;12.80;3.90;;;5.00;99.90;;;;;;5093948;28;20063;-67
2024/01/12 04:26:42;;;;;;;10.75;4.35;;;5.00;99.90;;;;;;5093122;28;20051;-67
2024/01/12 04:29:09;;;;;;;11.68;4.68;;;5.00;99.90;;;;;;5092762;28;20501;-69
2024/01/12 04:31:40;;;;;;;16.20;5.10;;;5.00;99.90;;;;;;5084446;28;20048;-65
2024/01/12 04:34:09;;;;;;;11.45;4.65;;;5.00;99.90;;;;;;5093972;28;20052;-68
2024/01/12 04:36:37;;;;;;;10.63;5.35;;;5.00;99.90;;;;;;5093033;28;20048;-70
2024/01/12 04:39:04;;;;;;;10.98;4.82;;;5.00;99.90;;;;;;5075640;28;20066;-68
2024/01/12 04:41:32;;;;;;;14.40;6.00;;;5.00;99.90;;;;;;5096199;28;20039;-64
2024/01/12 04:44:00;;;;;;;13.07;5.13;;;5.00;99.90;;;;;;5097793;28;20407;-68
2024/01/12 04:46:28;;;;;;;11.57;4.85;;;5.00;99.90;;;;;;5087595;28;20056;-66
2024/01/12 04:48:55;;;;;;;12.32;4.18;;;5.00;99.90;;;;;;5093772;28;20055;-68
2024/01/12 04:51:24;;;;;;;10.35;4.57;;;4.90;99.90;;;;;;5079181;28;20063;-70
2024/01/12 04:53:52;;;;;;;8.85;3.97;;;5.00;99.90;;;;;;5103682;28;20050;-69
2024/01/12 04:56:19;;;;;;;10.00;3.13;;;5.00;99.90;;;;;;5097550;28;20044;-67
2024/01/12 04:58:47;;;;;;;12.80;3.05;;;4.90;99.90;;;;;;5092858;28;20044;-65
2024/01/12 05:01:15;;;;;;;9.20;3.10;;;4.90;99.90;;;;;;5088056;28;20048;-65
2024/01/12 05:03:42;;;;;;;8.38;2.42;;;5.00;99.90;;;;;;5090353;28;20395;-68
2024/01/12 05:06:10;;;;;;;8.35;2.45;;;5.00;99.90;;;;;;5093128;28;20040;-70
2024/01/12 05:08:38;;;;;;;5.07;2.10;;;4.90;99.90;;;;;;5092745;28;20044;-69
2024/01/12 05:11:06;;;;;;;5.88;2.10;;;5.00;99.90;;;;;;5092597;28;21010;-71
2024/01/12 05:13:34;;;;;;;14.85;2.55;;;4.90;99.90;;;;;;5109548;28;20659;-70
2024/01/12 05:16:02;;;;;;;5.43;2.53;;;4.90;99.90;;;;;;5084004;28;20040;-67
2024/01/12 05:18:30;;;;;;;9.85;2.20;;;4.90;99.90;;;;;;5091822;28;20048;-69
2024/01/12 05:20:57;;;;;;;7.93;2.65;;;4.90;99.90;;;;;;5093189;28;20047;-70
2024/01/12 05:23:25;;;;;;;7.70;2.50;;;4.90;99.90;;;;;;5090965;28;20052;-69
2024/01/12 05:25:53;;;;;;;5.50;2.08;;;4.90;99.90;;;;;;5092935;28;20047;-67
2024/01/12 05:28:22;;;;;;;5.28;2.40;;;4.90;99.90;;;;;;5092308;28;20048;-69
2024/01/12 05:30:50;;;;;;;11.23;2.60;;;4.90;99.90;;;;;;5092231;28;20040;-68
2024/01/12 05:33:17;;;;;;;11.65;3.38;;;4.90;99.90;;;;;;5091821;28;20063;-68
2024/01/12 05:35:45;;;;;;;9.95;4.07;;;4.90;99.90;;;;;;5088778;28;20056;-66
2024/01/12 05:38:13;;;;;;;12.88;4.88;;;4.90;99.90;;;;;;5083716;28;20049;-68
2024/01/12 05:40:41;;;;;;;11.07;4.43;;;4.90;99.90;;;;;;5092164;28;20052;-69
2024/01/12 05:43:08;;;;;;;13.70;4.80;;;4.90;99.90;;;;;;5096203;28;20398;-70
2024/01/12 05:45:36;;;;;;;12.43;4.63;;;4.90;99.90;;;;;;5091973;28;20051;-68
2024/01/12 05:48:04;;;;;;;9.20;4.13;;;4.80;99.90;;;;;;5081516;28;20043;-69
2024/01/12 05:50:32;;;;;;;9.18;3.97;;;4.80;99.90;;;;;;5076489;28;20052;-66
2024/01/12 05:52:59;;;;;;;13.13;4.80;;;4.80;99.90;;;;;;5079535;28;20386;-65
2024/01/12 05:55:27;;;;;;;11.07;4.70;;;4.80;99.90;;;;;;5068949;28;20040;-68
2024/01/12 05:57:54;;;;;;;9.82;4.05;;;4.80;99.90;;;;;;5082420;28;20380;-66
2024/01/12 06:00:22;;;;;;;12.18;4.82;;;4.80;99.90;;;;;;5092599;28;20028;-67
2024/01/12 06:02:50;;;;;;;13.25;4.35;;;4.90;99.90;;;;;;5073599;28;20044;-69
2024/01/12 06:05:17;;;;;;;13.00;5.60;;;4.80;99.90;;;;;;5081310;28;20051;-64
2024/01/12 06:07:45;;;;;;;13.50;5.13;;;4.80;99.90;;;;;;5086677;28;20050;-68
2024/01/12 06:10:13;;;;;;;14.27;4.78;;;4.80;99.90;;;;;;5099006;28;20040;-66
2024/01/12 06:12:41;;;;;;;12.85;4.00;;;4.80;99.90;;;;;;5087748;28;20059;-65
2024/01/12 06:15:09;;;;;;;10.15;4.03;;;4.80;99.90;;;;;;5085618;28;20055;-65
2024/01/12 06:17:36;;;;;;;8.90;3.75;;;4.80;99.90;;;;;;5083566;28;20055;-66
2024/01/12 06:20:05;;;;;;;7.78;4.35;;;4.80;99.90;;;;;;5082242;28;20057;-68
2024/01/12 06:22:32;;;;;;;10.02;3.40;;;4.80;99.90;;;;;;5071215;28;20051;-64
2024/01/12 06:25:00;;;;;;;8.48;3.50;;;4.80;99.90;;;;;;5072172;28;20048;-66
2024/01/12 06:27:28;;;;;;;12.68;3.22;;;4.80;99.90;;;;;;5068035;28;20040;-66
2024/01/12 06:29:55;;;;;;;17.25;4.75;;;4.80;99.90;;;;;;5082950;28;20044;-68
2024/01/12 06:32:23;;;;;;;10.70;4.07;;;4.70;99.90;;;;;;5087068;28;20399;-67
2024/01/12 06:34:51;;;;;;;11.20;3.78;;;4.80;99.90;;;;;;5075339;28;20399;-68
2024/01/12 06:37:18;;;;;;;16.42;4.03;;;4.80;99.90;;;;;;5087453;28;20055;-65
2024/01/12 06:39:46;;;;;;;11.95;3.63;;;4.80;99.90;;;;;;5088372;28;20044;-68
2024/01/12 06:42:14;;;;;;;6.65;2.90;;;4.80;99.90;;;;;;5085828;28;20048;-71
2024/01/12 06:44:41;;;;;;;6.75;3.15;;;4.80;99.90;;;;;;5083760;28;20460;-70
2024/01/12 06:47:09;;;;;;;7.65;2.85;;;4.80;99.90;;;;;;5084509;28;20056;-70
2024/01/12 06:49:41;;;;;;;7.55;3.08;;;4.80;99.90;;;;;;5085658;28;20498;-66
2024/01/12 06:52:08;;;;;;;7.43;2.83;;;4.80;99.90;;;;;;5087137;28;20048;-66
2024/01/12 06:54:36;;;;;;;8.07;3.28;;;4.80;99.90;;;;;;5078437;28;20044;-67
2024/01/12 06:57:04;;;;;;;9.73;3.35;;;4.80;99.90;;;;;;5085135;28;20052;-67
2024/01/12 06:59:31;;;;;;;7.93;3.00;;;4.80;99.90;;;;;;5084045;28;20059;-65
2024/01/12 07:02:01;;;;;;;6.40;2.47;;;4.80;99.90;;;;;;5059033;28;20062;-65
2024/01/12 07:04:31;;;;;;;10.55;2.80;;;4.80;99.90;;;;;;5079863;28;20052;-66
2024/01/12 07:06:59;;;;;;;5.72;2.13;;;4.70;99.90;;;;;;5085266;28;20040;-67
2024/01/12 07:09:27;;;;;;;6.50;1.85;;;4.70;99.90;;;;;;5087257;28;20052;-67
2024/01/12 07:11:54;;;;;;;4.38;1.50;;;4.70;99.90;;;;;;5097418;28;20059;-66
2024/01/12 07:14:22;;;;;;;3.47;1.63;;;4.70;99.90;;;;;;5086267;28;20052;-67
2024/01/12 07:16:53;;;;;;;3.08;1.60;;;4.70;99.90;;;;;;5070183;28;20734;-66
2024/01/12 07:19:20;;;;;;;7.88;1.80;;;4.70;99.90;;;;;;5070134;28;20330;-65
2024/01/12 07:21:48;;;;;;;5.88;1.92;;;4.70;99.90;;;;;;5076094;28;20043;-65
2024/01/12 07:24:16;;;;;;;2.05;1.30;;;4.70;99.90;;;;;;5092202;28;20048;-66
2024/01/12 07:26:44;;;;;;;2.70;1.20;;;4.70;99.90;;;;;;5090387;28;20044;-67
2024/01/12 07:29:14;;;;;;;3.42;1.58;;;4.70;99.90;;;;;;5080374;28;20411;-69
2024/01/12 07:31:49;;;;;;;4.22;1.70;;;4.70;99.90;;;;;;5085743;28;20048;-67
2024/01/12 07:34:17;;;;;;;5.45;1.35;;;4.70;99.90;;;;;;5072895;28;20071;-65
2024/01/12 07:36:45;;;;;;;3.03;1.42;;;4.70;99.90;;;;;;5081357;28;20799;-66
2024/01/12 07:39:13;;;;;;;2.38;1.25;;;4.70;99.90;;;;;;5087384;28;20044;-66
2024/01/12 07:41:42;;;;;;;4.35;1.58;;;4.70;99.90;;;;;;5088843;28;20048;-65
2024/01/12 07:44:13;;;;;;;6.93;1.85;;;4.70;99.90;;;;;;5070681;28;20059;-68
2024/01/12 07:46:40;;;;;;;3.83;1.42;;;4.70;99.90;;;;;;5085775;28;20059;-66
2024/01/12 07:49:08;;;;;;;7.00;3.00;;;4.70;99.90;;;;;;5091384;28;20067;-66
2024/01/12 07:51:36;;;;;;;3.03;1.65;;;4.70;99.90;;;;;;5090777;28;20040;-68
2024/01/12 07:54:03;;;;;;;3.97;1.63;;;4.70;99.90;;;;;;5090673;28;20067;-65
2024/01/12 07:56:32;;;;;;;3.53;1.38;;;4.70;99.90;;;;;;5090225;28;20052;-65
2024/01/12 07:59:00;;;;;;;3.17;1.40;;;4.70;99.90;;;;;;5090486;28;20040;-68
2024/01/12 08:01:27;;;;;;;5.97;2.00;;;4.70;99.90;;;;;;5089162;28;20048;-68
2024/01/12 08:03:55;;;;;;;6.70;1.63;;;4.70;99.90;;;;;;5080780;28;20047;-69
2024/01/12 08:06:23;;;;;;;1.73;1.52;;;4.70;99.90;;;;;;5088746;28;20043;-66
2024/01/12 08:08:51;;;;;;;4.47;1.65;;;4.70;99.90;;;;;;5091138;28;20141;-64
2024/01/12 08:11:18;;;;;;;5.10;1.90;;;4.70;99.90;;;;;;5090839;28;20040;-64
2024/01/12 08:14:01;;;;;;;5.38;2.35;;;4.70;99.90;;;;;;5088965;28;20048;-66
2024/01/12 08:16:31;;;;;;;5.18;1.73;;;4.70;99.90;;;;;;5074562;28;20055;-66
2024/01/12 08:18:58;;;;;;;5.03;1.92;;;4.70;99.90;;;;;;5074905;28;20047;-66
2024/01/12 08:21:26;;;;;;;2.78;1.83;;;4.70;99.90;;;;;;5075864;28;20424;-66
2024/01/12 08:23:58;;;;;;;4.50;1.67;;;4.70;99.90;;;;;;5080609;28;20044;-65
2024/01/12 08:26:25;;;;;;;8.07;2.50;;;4.60;99.90;;;;;;5086551;28;20040;-66
2024/01/12 08:28:55;;;;;;;7.63;2.05;;;4.70;99.90;;;;;;5086782;28;20044;-67
2024/01/12 08:31:23;;;;;;;10.77;3.55;;;4.70;99.90;;;;;;5089408;28;20048;-66
2024/01/12 08:33:50;;;;;;;4.00;2.13;;;4.60;99.90;;;;;;5097855;28;20044;-71
2024/01/12 08:36:18;;;;;;;6.10;1.80;;;4.60;99.90;;;;;;5089359;28;20043;-66
2024/01/12 08:38:46;;;;;;;6.20;2.25;;;4.60;99.90;;;;;;5102737;28;20059;-67
2024/01/12 08:41:13;;;;;;;6.28;2.10;;;4.60;99.90;;;;;;5109721;28;20878;-68
2024/01/12 08:43:41;;;;;;;6.05;2.47;;;4.70;99.90;;;;;;5093183;28;20039;-66
2024/01/12 08:46:09;;;;;;;9.25;2.63;;;4.70;99.90;;;;;;5087005;28;20393;-65
2024/01/12 08:48:36;;;;;;;5.97;2.10;;;4.60;99.90;;;;;;5098233;28;20059;-66
2024/01/12 08:51:05;;;;;;;10.23;3.58;;;4.60;99.90;;;;;;5082160;28;20040;-66
2024/01/12 08:53:37;;;;;;;3.78;2.00;;;4.70;99.90;;;;;;5089832;28;20059;-67
2024/01/12 08:56:07;;;;;;;4.00;2.28;;;4.60;99.90;;;;;;5090289;28;20051;-66
2024/01/12 08:58:37;;;;;;;7.85;2.80;;;4.70;99.90;;;;;;5090938;28;20044;-66
2024/01/12 09:01:06;;;;;;;5.00;2.47;;;4.70;99.90;;;;;;5088371;28;20036;-65
2024/01/12 09:03:34;;;;;;;5.35;2.50;;;4.70;99.90;;;;;;5087436;28;20545;-67
2024/01/12 09:06:02;;;;;;;4.18;2.45;;;4.60;99.90;;;;;;5101445;28;20064;-65
2024/01/12 09:08:29;;;;;;;7.25;2.20;;;4.60;99.90;;;;;;5085568;28;20415;-68
2024/01/12 09:10:57;;;;;;;7.75;2.53;;;4.60;99.90;;;;;;5088801;28;20051;-66
2024/01/12 09:13:25;;;;;;;5.18;2.63;;;4.70;99.90;;;;;;5048097;28;1185133;-67
2024/01/12 09:15:53;;;;;;;7.78;2.50;;;4.60;99.90;;;;;;5089604;28;20048;-68
2024/01/12 09:18:20;;;;;;;4.63;2.50;;;4.60;99.90;;;;;;5089662;28;20483;-66
2024/01/12 09:20:48;;;;;;;6.70;2.15;;;4.60;99.90;;;;;;5085338;28;20059;-66
2024/01/12 09:23:16;;;;;;;8.43;2.72;;;4.60;99.90;;;;;;5087819;28;20480;-70
2024/01/12 09:25:44;;;;;;;7.07;2.58;;;4.60;99.90;;;;;;5087771;28;20048;-70
2024/01/12 09:28:15;;;;;;;4.50;2.70;;;4.60;99.90;;;;;;5089416;28;20051;-69
2024/01/12 09:30:44;;;;;;;5.78;2.20;;;4.60;99.90;;;;;;5081638;28;20087;-68
2024/01/12 09:33:12;;;;;;;8.80;2.60;;;4.70;99.90;;;;;;5095508;28;20048;-66
2024/01/12 09:35:40;;;;;;;7.00;2.33;;;4.70;99.90;;;;;;5091977;28;20059;-67
2024/01/12 09:38:08;;;;;;;9.02;2.80;;;4.70;99.90;;;;;;5088648;28;20051;-68
2024/01/12 09:40:36;;;;;;;7.75;2.63;;;4.70;99.90;;;;;;5089095;28;20051;-66
2024/01/12 09:43:10;;;;;;;7.55;2.83;;;4.70;99.90;;;;;;5087536;28;20199;-70
2024/01/12 09:45:42;;;;;;;4.70;2.40;;;4.70;99.90;;;;;;5088137;28;20058;-70
2024/01/12 09:48:11;;;;;;;7.90;2.47;;;4.80;99.90;;;;;;5091656;28;20048;-67
2024/01/12 09:50:40;;;;;;;5.70;2.42;;;4.70;99.90;;;;;;5075111;28;20048;-67
2024/01/12 09:53:08;;;;;;;6.32;2.35;;;4.70;99.90;;;;;;5078914;28;20048;-70
2024/01/12 09:55:36;;;;;;;6.40;3.55;;;4.80;99.90;;;;;;5083443;28;20044;-70
2024/01/12 09:58:04;;;;;;;8.52;2.75;;;4.80;99.90;;;;;;5092344;28;20298;-71
2024/01/12 10:00:34;;;;;;;5.50;2.92;;;4.80;99.90;;;;;;5106027;28;20052;-69
2024/01/12 10:03:02;;;;;;;7.28;3.83;;;4.80;99.90;;;;;;5095817;28;20056;-68
2024/01/12 10:05:29;;;;;;;6.90;2.97;;;4.80;99.90;;;;;;5098744;28;20051;-70
2024/01/12 10:07:57;;;;;;;8.73;3.30;;;4.80;99.90;;;;;;5098211;28;20403;-71
2024/01/12 10:10:25;;;;;;;10.30;3.17;;;4.80;99.90;;;;;;5085119;28;20399;-70
2024/01/12 10:12:55;;;;;;;8.05;2.97;;;4.80;99.90;;;;;;5094655;28;20070;-71
2024/01/12 10:15:24;;;;;;;7.07;2.70;;;4.80;99.90;;;;;;5104485;28;20048;-66
2024/01/12 10:17:51;;;;;;;5.55;2.50;;;4.80;99.90;;;;;;5103975;28;20059;-69
2024/01/12 10:20:22;;;;;;;6.35;2.60;;;4.80;99.90;;;;;;5088959;28;20044;-69
2024/01/12 10:22:57;;;;;;;5.75;2.33;;;4.80;99.90;;;;;;5084856;28;20048;-68
2024/01/12 10:25:25;;;;;;;3.60;2.35;;;4.80;99.90;;;;;;5085459;28;20048;-69
2024/01/12 10:27:57;;;;;;;5.55;2.63;;;4.80;99.90;;;;;;5090481;28;20052;-67
2024/01/12 10:30:30;;;;;;;2.40;1.80;;;4.80;99.90;;;;;;5103939;28;20047;-66
2024/01/12 10:32:57;;;;;;;3.53;1.88;;;4.80;99.90;;;;;;5101529;28;20470;-70
2024/01/12 10:35:26;;;;;;;7.30;1.77;;;4.80;99.90;;;;;;5105299;28;20063;-68
2024/01/12 10:37:57;;;;;;;3.22;1.90;;;4.80;99.90;;;;;;5099893;28;20047;-70
2024/01/12 10:40:25;;;;;;;4.63;2.20;;;4.80;99.90;;;;;;5073470;28;20056;-71
2024/01/12 10:42:55;;;;;;;2.83;1.88;;;4.80;99.90;;;;;;5084877;28;20048;-71
2024/01/12 10:45:25;;;;;;;3.55;2.45;;;4.80;99.90;;;;;;5084890;28;20059;-72
2024/01/12 10:48:04;;;;;;;4.57;2.40;;;4.80;99.90;;;;;;5088861;28;20050;-71
2024/01/12 10:50:41;;;;;;;7.40;2.38;;;4.80;99.90;;;;;;5097030;28;20060;-69
2024/01/12 10:53:36;;;;;;;4.25;2.00;;;4.80;99.90;;;;;;5077086;28;20048;-67
2024/01/12 10:56:05;;;;;;;3.40;2.47;;;4.90;99.90;;;;;;5064583;28;20059;-71
2024/01/12 10:58:34;;;;;;;9.05;2.30;;;4.90;99.90;;;;;;5086314;28;20047;-68
2024/01/12 11:01:02;;;;;;;5.32;2.63;;;4.80;99.90;;;;;;5105007;28;20043;-69
2024/01/12 11:03:31;;;;;;;3.50;2.40;;;4.80;99.90;;;;;;5089680;28;20051;-68
2024/01/12 11:06:00;;;;;;;8.00;2.38;;;4.80;99.90;;;;;;5102216;28;20306;-71
2024/01/12 11:08:29;;;;;;;4.50;2.42;;;4.80;99.90;;;;;;5094720;28;20403;-70
2024/01/12 11:10:58;;;;;;;7.35;2.83;;;4.80;99.90;;;;;;5092321;28;20048;-66
2024/01/12 11:13:26;;;;;;;9.85;2.63;;;4.90;99.90;;;;;;5077597;28;20067;-66
2024/01/12 11:15:54;;;;;;;6.13;2.42;;;4.80;99.90;;;;;;5084677;28;20591;-67
2024/01/12 11:18:25;;;;;;;8.40;2.33;;;4.90;99.90;;;;;;5094065;28;20055;-69
2024/01/12 11:21:02;;;;;;;6.15;3.00;;;4.90;99.90;;;;;;5105080;28;20051;-68
2024/01/12 11:23:39;;;;;;;5.10;2.55;;;4.90;99.90;;;;;;5103301;28;20047;-65
2024/01/12 11:26:08;;;;;;;8.23;3.35;;;4.90;99.90;;;;;;5103672;28;20067;-69
2024/01/12 11:28:37;;;;;;;5.72;3.55;;;4.90;99.90;;;;;;5102839;28;20392;-66
2024/01/12 11:31:05;;;;;;;7.47;3.90;;;4.90;99.90;;;;;;5079352;28;20410;-71
2024/01/12 11:33:42;;;;;;;8.63;3.28;;;4.90;99.90;;;;;;5084466;28;20671;-71
2024/01/12 11:36:15;;;;;;;7.03;3.38;;;4.80;99.90;;;;;;5083920;28;20055;-69
2024/01/12 11:38:43;;;;;;;11.23;3.70;;;4.90;99.90;;;;;;5088769;28;20044;-72
2024/01/12 11:41:12;;;;;;;6.78;3.30;;;4.90;99.90;;;;;;5080861;28;20036;-69
2024/01/12 11:43:49;;;;;;;5.32;2.83;;;4.90;99.90;;;;;;5082948;28;20048;-66
2024/01/12 11:46:17;;;;;;;8.55;3.40;;;4.90;99.90;;;;;;5083639;28;20054;-69
2024/01/12 11:48:47;;;;;;;6.00;3.60;;;5.00;99.90;;;;;;5096253;28;20141;-73
2024/01/12 11:51:23;;;;;;;8.55;4.28;;;5.00;99.90;;;;;;5105138;28;20044;-70
2024/01/12 11:53:52;;;;;;;6.05;3.47;;;5.00;99.90;;;;;;5084884;28;20063;-67
2024/01/12 11:56:21;;;;;;;;;;;5.00;99.90;;;;;;5084719;28;20044;-68
2024/01/12 11:58:49;;;;;;;6.63;3.60;;;5.00;99.90;;;;;;5075429;28;20286;-70
2024/01/12 12:01:16;;;;;;;11.07;3.88;;;5.00;99.90;;;;;;5080970;28;20047;-66
2024/01/12 12:03:49;;;;;;;9.18;3.53;;;5.00;99.90;;;;;;5083763;28;20513;-66
2024/01/12 12:06:17;;;;;;;10.45;4.30;;;5.00;99.90;;;;;;5105147;28;20047;-70
2024/01/12 12:08:45;;;;;;;6.70;3.60;;;5.00;99.90;;;;;;5087902;28;20047;-70
2024/01/12 12:11:13;;;;;;;8.23;3.80;;;5.00;99.90;;;;;;5078349;28;20052;-70
2024/01/12 12:13:42;;;;;;;10.95;3.90;;;5.00;99.90;;;;;;5081249;28;20063;-65
2024/01/12 12:16:10;;;;;;;7.18;3.70;;;5.00;99.90;;;;;;5087542;28;20048;-66
2024/01/12 12:18:38;;;;;;;8.15;4.47;;;5.00;99.90;;;;;;5087482;28;20495;-68
2024/01/12 12:21:06;;;;;;;8.35;4.30;;;5.10;99.90;;;;;;5086196;28;20056;-67
2024/01/12 12:23:37;;;;;;;10.52;4.95;;;5.00;99.90;;;;;;5085530;28;20060;-69
2024/01/12 12:26:05;;;;;;;9.52;4.13;;;5.00;99.90;;;;;;5086282;28;20044;-68
2024/01/12 12:28:33;;;;;;;9.32;5.03;;;5.10;99.90;;;;;;5087576;28;20051;-66
2024/01/12 12:31:01;;;;;;;11.23;5.07;;;5.10;99.90;;;;;;5087294;28;20400;-70
2024/01/12 12:33:29;;;;;;;9.90;4.40;;;5.10;99.90;;;;;;5086852;28;20048;-65
2024/01/12 12:36:03;;;;;;;12.40;5.25;;;5.10;99.90;;;;;;5102817;28;20066;-69
2024/01/12 12:38:39;;;;;;;12.40;4.70;;;5.10;99.90;;;;;;5087052;28;20410;-65
2024/01/12 12:41:08;;;;;;;10.10;4.47;;;5.20;99.90;;;;;;5085551;28;20056;-65
2024/01/12 12:43:37;;;;;;;10.63;4.47;;;5.20;99.90;;;;;;5084151;28;20044;-68
2024/01/12 12:46:07;;;;;;;7.45;3.70;;;5.10;99.90;;;;;;5085366;28;20044;-66
2024/01/12 12:48:38;;;;;;;8.30;4.75;;;5.20;99.90;;;;;;5077335;28;20051;-66
2024/01/12 12:51:06;;;;;;;15.82;4.63;;;5.10;99.90;;;;;;5087096;28;20052;-66
2024/01/12 12:53:34;;;;;;;10.50;5.30;;;5.10;99.90;;;;;;5099815;28;20395;-70
2024/01/12 12:56:01;;;;;;;10.73;5.18;;;5.10;99.90;;;;;;5097481;28;20527;-66
2024/01/12 12:58:31;;;;;;;11.38;4.82;;;5.10;99.90;;;;;;5086933;28;20044;-66
2024/01/12 13:00:59;;;;;;;21.77;5.25;;;5.00;99.90;;;;;;5086263;28;20052;-68
2024/01/12 13:03:26;;;;;;;10.02;4.60;;;5.10;99.90;;;;;;5085915;28;20040;-65